sensor_id;sensor_type;location;lat;lon;timestamp;P1;durP1;ratioP1;P2;durP2;ratioP2
20705;SDS011;10514;49.468;11.044;2024-02-26T00:00:14;4.40;;;2.70;;
20705;SDS011;10514;49.468;11.044;2024-02-26T00:02:40;4.30;;;2.67;;
20705;SDS011;10514;49.468;11.044;2024-02-26T00:05:07;5.57;;;2.83;;
20705;SDS011;10514;49.468;11.044;2024-02-26T00:07:33;4.00;;;2.60;;
20705;SDS011;10514;49.468;11.044;2024-02-26T00:09:59;6.50;;;2.97;;
20705;SDS011;10514;49.468;11.044;2024-02-26T00:12:24;4.97;;;2.90;;
20705;SDS011;10514;49.468;11.044;2024-02-26T00:14:50;5.10;;;2.50;;
20705;SDS011;10514;49.468;11.044;2024-02-26T00:17:17;5.33;;;2.67;;
20705;SDS011;10514;49.468;11.044;2024-02-26T00:19:43;4.63;;;2.77;;
20705;SDS011;10514;49.468;11.044;2024-02-26T00:22:08;4.23;;;2.47;;
20705;SDS011;10514;49.468;11.044;2024-02-26T00:24:34;4.40;;;2.30;;
20705;SDS011;10514;49.468;11.044;2024-02-26T00:26:59;4.47;;;2.33;;
20705;SDS011;10514;49.468;11.044;2024-02-26T00:29:25;5.00;;;2.90;;
20705;SDS011;10514;49.468;11.044;2024-02-26T00:31:50;4.60;;;2.53;;
20705;SDS011;10514;49.468;11.044;2024-02-26T00:34:16;5.53;;;2.93;;
20705;SDS011;10514;49.468;11.044;2024-02-26T00:36:42;4.37;;;2.60;;
20705;SDS011;10514;49.468;11.044;2024-02-26T00:39:07;5.03;;;2.63;;
20705;SDS011;10514;49.468;11.044;2024-02-26T00:41:33;5.80;;;2.90;;
20705;SDS011;10514;49.468;11.044;2024-02-26T00:44:03;4.53;;;2.75;;
20705;SDS011;10514;49.468;11.044;2024-02-26T00:46:29;5.40;;;2.70;;
20705;SDS011;10514;49.468;11.044;2024-02-26T00:48:54;6.37;;;3.20;;
20705;SDS011;10514;49.468;11.044;2024-02-26T00:51:20;5.03;;;3.00;;
20705;SDS011;10514;49.468;11.044;2024-02-26T00:53:45;5.03;;;2.70;;
20705;SDS011;10514;49.468;11.044;2024-02-26T00:56:11;5.73;;;3.43;;
20705;SDS011;10514;49.468;11.044;2024-02-26T00:58:36;6.20;;;3.70;;
20705;SDS011;10514;49.468;11.044;2024-02-26T01:01:02;6.67;;;3.73;;
20705;SDS011;10514;49.468;11.044;2024-02-26T01:03:28;6.90;;;3.67;;
20705;SDS011;10514;49.468;11.044;2024-02-26T01:05:53;7.20;;;3.50;;
20705;SDS011;10514;49.468;11.044;2024-02-26T01:08:19;7.57;;;3.80;;
20705;SDS011;10514;49.468;11.044;2024-02-26T01:10:45;7.77;;;3.90;;
20705;SDS011;10514;49.468;11.044;2024-02-26T01:13:10;6.53;;;3.33;;
20705;SDS011;10514;49.468;11.044;2024-02-26T01:15:36;6.33;;;3.50;;
20705;SDS011;10514;49.468;11.044;2024-02-26T01:18:02;6.40;;;3.53;;
20705;SDS011;10514;49.468;11.044;2024-02-26T01:20:27;6.60;;;3.67;;
20705;SDS011;10514;49.468;11.044;2024-02-26T01:22:53;7.77;;;4.13;;
20705;SDS011;10514;49.468;11.044;2024-02-26T01:25:18;6.67;;;3.90;;
20705;SDS011;10514;49.468;11.044;2024-02-26T01:27:44;7.03;;;3.60;;
20705;SDS011;10514;49.468;11.044;2024-02-26T01:30:10;6.07;;;3.53;;
20705;SDS011;10514;49.468;11.044;2024-02-26T01:32:36;5.80;;;3.33;;
20705;SDS011;10514;49.468;11.044;2024-02-26T01:35:02;6.57;;;3.93;;
20705;SDS011;10514;49.468;11.044;2024-02-26T01:37:34;7.60;;;4.10;;
20705;SDS011;10514;49.468;11.044;2024-02-26T01:40:00;8.30;;;4.47;;
20705;SDS011;10514;49.468;11.044;2024-02-26T01:42:28;9.13;;;5.27;;
20705;SDS011;10514;49.468;11.044;2024-02-26T01:44:55;9.83;;;5.07;;
20705;SDS011;10514;49.468;11.044;2024-02-26T01:47:21;7.80;;;5.13;;
20705;SDS011;10514;49.468;11.044;2024-02-26T01:49:47;10.17;;;5.13;;
20705;SDS011;10514;49.468;11.044;2024-02-26T01:52:13;9.20;;;5.20;;
20705;SDS011;10514;49.468;11.044;2024-02-26T01:54:39;12.33;;;6.23;;
20705;SDS011;10514;49.468;11.044;2024-02-26T01:57:05;12.67;;;6.43;;
20705;SDS011;10514;49.468;11.044;2024-02-26T01:59:32;12.87;;;6.17;;
20705;SDS011;10514;49.468;11.044;2024-02-26T02:01:59;11.80;;;6.47;;
20705;SDS011;10514;49.468;11.044;2024-02-26T02:04:28;11.97;;;6.10;;
20705;SDS011;10514;49.468;11.044;2024-02-26T02:06:54;11.47;;;6.17;;
20705;SDS011;10514;49.468;11.044;2024-02-26T02:09:20;13.27;;;7.60;;
20705;SDS011;10514;49.468;11.044;2024-02-26T02:11:47;15.30;;;7.07;;
20705;SDS011;10514;49.468;11.044;2024-02-26T02:14:13;14.80;;;7.93;;
20705;SDS011;10514;49.468;11.044;2024-02-26T02:16:39;13.10;;;7.40;;
20705;SDS011;10514;49.468;11.044;2024-02-26T02:19:05;10.70;;;5.97;;
20705;SDS011;10514;49.468;11.044;2024-02-26T02:21:30;11.50;;;6.73;;
20705;SDS011;10514;49.468;11.044;2024-02-26T02:23:56;10.33;;;5.87;;
20705;SDS011;10514;49.468;11.044;2024-02-26T02:26:21;11.43;;;6.00;;
20705;SDS011;10514;49.468;11.044;2024-02-26T02:28:47;10.73;;;5.60;;
20705;SDS011;10514;49.468;11.044;2024-02-26T02:31:13;11.43;;;5.80;;
20705;SDS011;10514;49.468;11.044;2024-02-26T02:33:40;11.20;;;6.70;;
20705;SDS011;10514;49.468;11.044;2024-02-26T02:36:06;10.53;;;5.87;;
20705;SDS011;10514;49.468;11.044;2024-02-26T02:38:34;12.23;;;6.40;;
20705;SDS011;10514;49.468;11.044;2024-02-26T02:41:03;10.67;;;5.80;;
20705;SDS011;10514;49.468;11.044;2024-02-26T02:43:29;10.43;;;5.63;;
20705;SDS011;10514;49.468;11.044;2024-02-26T02:45:54;10.97;;;6.10;;
20705;SDS011;10514;49.468;11.044;2024-02-26T02:48:20;10.30;;;5.93;;
20705;SDS011;10514;49.468;11.044;2024-02-26T02:50:45;9.80;;;5.50;;
20705;SDS011;10514;49.468;11.044;2024-02-26T02:53:11;11.93;;;6.03;;
20705;SDS011;10514;49.468;11.044;2024-02-26T02:55:36;8.90;;;5.30;;
20705;SDS011;10514;49.468;11.044;2024-02-26T02:58:02;12.33;;;6.50;;
20705;SDS011;10514;49.468;11.044;2024-02-26T03:00:27;10.67;;;5.90;;
20705;SDS011;10514;49.468;11.044;2024-02-26T03:02:53;11.63;;;6.17;;
20705;SDS011;10514;49.468;11.044;2024-02-26T03:05:18;11.23;;;5.83;;
20705;SDS011;10514;49.468;11.044;2024-02-26T03:07:44;10.77;;;5.87;;
20705;SDS011;10514;49.468;11.044;2024-02-26T03:10:09;11.17;;;6.17;;
20705;SDS011;10514;49.468;11.044;2024-02-26T03:12:35;10.03;;;5.87;;
20705;SDS011;10514;49.468;11.044;2024-02-26T03:15:01;11.13;;;6.10;;
20705;SDS011;10514;49.468;11.044;2024-02-26T03:17:28;10.97;;;6.00;;
20705;SDS011;10514;49.468;11.044;2024-02-26T03:19:54;10.47;;;5.90;;
20705;SDS011;10514;49.468;11.044;2024-02-26T03:22:20;9.53;;;5.23;;
20705;SDS011;10514;49.468;11.044;2024-02-26T03:24:46;9.43;;;5.40;;
20705;SDS011;10514;49.468;11.044;2024-02-26T03:27:12;10.67;;;6.10;;
20705;SDS011;10514;49.468;11.044;2024-02-26T03:29:38;9.73;;;5.60;;
20705;SDS011;10514;49.468;11.044;2024-02-26T03:32:04;10.77;;;5.90;;
20705;SDS011;10514;49.468;11.044;2024-02-26T03:34:30;10.33;;;5.10;;
20705;SDS011;10514;49.468;11.044;2024-02-26T03:36:56;8.77;;;5.03;;
20705;SDS011;10514;49.468;11.044;2024-02-26T03:39:22;9.40;;;4.87;;
20705;SDS011;10514;49.468;11.044;2024-02-26T03:41:48;8.73;;;5.20;;
20705;SDS011;10514;49.468;11.044;2024-02-26T03:44:14;10.30;;;5.43;;
20705;SDS011;10514;49.468;11.044;2024-02-26T03:46:40;9.23;;;5.23;;
20705;SDS011;10514;49.468;11.044;2024-02-26T03:49:07;8.70;;;4.97;;
20705;SDS011;10514;49.468;11.044;2024-02-26T03:51:33;10.73;;;5.30;;
20705;SDS011;10514;49.468;11.044;2024-02-26T03:53:59;10.57;;;5.43;;
20705;SDS011;10514;49.468;11.044;2024-02-26T03:56:25;9.70;;;5.40;;
20705;SDS011;10514;49.468;11.044;2024-02-26T03:58:51;7.73;;;4.53;;
20705;SDS011;10514;49.468;11.044;2024-02-26T04:01:16;8.17;;;4.77;;
20705;SDS011;10514;49.468;11.044;2024-02-26T04:03:42;8.70;;;4.90;;
20705;SDS011;10514;49.468;11.044;2024-02-26T04:06:08;9.23;;;4.77;;
20705;SDS011;10514;49.468;11.044;2024-02-26T04:08:35;9.17;;;4.90;;
20705;SDS011;10514;49.468;11.044;2024-02-26T04:11:01;8.07;;;4.77;;
20705;SDS011;10514;49.468;11.044;2024-02-26T04:13:31;8.45;;;4.55;;
20705;SDS011;10514;49.468;11.044;2024-02-26T04:15:57;8.57;;;5.00;;
20705;SDS011;10514;49.468;11.044;2024-02-26T04:18:23;7.80;;;4.57;;
20705;SDS011;10514;49.468;11.044;2024-02-26T04:20:48;8.67;;;4.83;;
20705;SDS011;10514;49.468;11.044;2024-02-26T04:23:14;9.03;;;5.00;;
20705;SDS011;10514;49.468;11.044;2024-02-26T04:25:39;9.80;;;5.17;;
20705;SDS011;10514;49.468;11.044;2024-02-26T04:28:05;8.20;;;5.00;;
20705;SDS011;10514;49.468;11.044;2024-02-26T04:30:30;8.07;;;4.60;;
20705;SDS011;10514;49.468;11.044;2024-02-26T04:32:56;8.13;;;4.57;;
20705;SDS011;10514;49.468;11.044;2024-02-26T04:35:21;8.00;;;4.50;;
20705;SDS011;10514;49.468;11.044;2024-02-26T04:37:47;9.17;;;5.00;;
20705;SDS011;10514;49.468;11.044;2024-02-26T04:40:12;8.93;;;5.20;;
20705;SDS011;10514;49.468;11.044;2024-02-26T04:42:38;8.60;;;4.90;;
20705;SDS011;10514;49.468;11.044;2024-02-26T04:45:03;8.70;;;5.37;;
20705;SDS011;10514;49.468;11.044;2024-02-26T04:47:29;8.40;;;4.53;;
20705;SDS011;10514;49.468;11.044;2024-02-26T04:49:55;8.40;;;5.13;;
20705;SDS011;10514;49.468;11.044;2024-02-26T04:52:21;8.83;;;4.70;;
20705;SDS011;10514;49.468;11.044;2024-02-26T04:54:46;8.83;;;4.73;;
20705;SDS011;10514;49.468;11.044;2024-02-26T04:57:12;8.27;;;4.23;;
20705;SDS011;10514;49.468;11.044;2024-02-26T04:59:37;8.87;;;4.50;;
20705;SDS011;10514;49.468;11.044;2024-02-26T05:02:03;9.40;;;5.17;;
20705;SDS011;10514;49.468;11.044;2024-02-26T05:04:28;10.80;;;6.10;;
20705;SDS011;10514;49.468;11.044;2024-02-26T05:06:54;14.97;;;7.97;;
20705;SDS011;10514;49.468;11.044;2024-02-26T05:09:19;9.47;;;6.43;;
20705;SDS011;10514;49.468;11.044;2024-02-26T05:11:45;8.90;;;5.60;;
20705;SDS011;10514;49.468;11.044;2024-02-26T05:14:11;9.00;;;4.70;;
20705;SDS011;10514;49.468;11.044;2024-02-26T05:16:36;7.70;;;4.60;;
20705;SDS011;10514;49.468;11.044;2024-02-26T05:19:02;7.27;;;4.70;;
20705;SDS011;10514;49.468;11.044;2024-02-26T05:21:28;7.60;;;4.80;;
20705;SDS011;10514;49.468;11.044;2024-02-26T05:23:53;6.97;;;3.63;;
20705;SDS011;10514;49.468;11.044;2024-02-26T05:26:20;8.40;;;4.10;;
20705;SDS011;10514;49.468;11.044;2024-02-26T05:28:46;6.93;;;3.90;;
20705;SDS011;10514;49.468;11.044;2024-02-26T05:31:15;6.80;;;4.13;;
20705;SDS011;10514;49.468;11.044;2024-02-26T05:33:41;8.13;;;3.73;;
20705;SDS011;10514;49.468;11.044;2024-02-26T05:36:07;5.60;;;3.67;;
20705;SDS011;10514;49.468;11.044;2024-02-26T05:38:32;7.23;;;3.87;;
20705;SDS011;10514;49.468;11.044;2024-02-26T05:40:58;6.77;;;3.33;;
20705;SDS011;10514;49.468;11.044;2024-02-26T05:43:25;5.77;;;3.53;;
20705;SDS011;10514;49.468;11.044;2024-02-26T05:45:51;5.93;;;3.63;;
20705;SDS011;10514;49.468;11.044;2024-02-26T05:48:16;6.33;;;3.47;;
20705;SDS011;10514;49.468;11.044;2024-02-26T05:50:44;6.00;;;3.40;;
20705;SDS011;10514;49.468;11.044;2024-02-26T05:53:10;5.57;;;3.53;;
20705;SDS011;10514;49.468;11.044;2024-02-26T05:55:35;6.83;;;4.03;;
20705;SDS011;10514;49.468;11.044;2024-02-26T05:58:01;6.23;;;4.13;;
20705;SDS011;10514;49.468;11.044;2024-02-26T06:00:26;7.30;;;4.40;;
20705;SDS011;10514;49.468;11.044;2024-02-26T06:02:52;7.13;;;4.30;;
20705;SDS011;10514;49.468;11.044;2024-02-26T06:05:18;12.00;;;7.50;;
20705;SDS011;10514;49.468;11.044;2024-02-26T06:07:43;17.30;;;9.57;;
20705;SDS011;10514;49.468;11.044;2024-02-26T06:10:09;13.77;;;9.10;;
20705;SDS011;10514;49.468;11.044;2024-02-26T06:12:35;15.93;;;10.13;;
20705;SDS011;10514;49.468;11.044;2024-02-26T06:15:01;12.83;;;8.07;;
20705;SDS011;10514;49.468;11.044;2024-02-26T06:17:26;10.77;;;6.67;;
20705;SDS011;10514;49.468;11.044;2024-02-26T06:19:53;36.40;;;20.50;;
20705;SDS011;10514;49.468;11.044;2024-02-26T06:22:18;59.57;;;33.30;;
20705;SDS011;10514;49.468;11.044;2024-02-26T06:24:44;161.93;;;64.00;;
20705;SDS011;10514;49.468;11.044;2024-02-26T06:27:09;126.80;;;50.83;;
20705;SDS011;10514;49.468;11.044;2024-02-26T06:29:35;73.27;;;31.80;;
20705;SDS011;10514;49.468;11.044;2024-02-26T06:32:00;37.23;;;20.20;;
20705;SDS011;10514;49.468;11.044;2024-02-26T06:34:26;58.27;;;30.33;;
20705;SDS011;10514;49.468;11.044;2024-02-26T06:36:51;75.43;;;36.40;;
20705;SDS011;10514;49.468;11.044;2024-02-26T06:39:17;68.03;;;33.73;;
20705;SDS011;10514;49.468;11.044;2024-02-26T06:41:43;51.73;;;26.83;;
20705;SDS011;10514;49.468;11.044;2024-02-26T06:44:11;61.13;;;27.53;;
20705;SDS011;10514;49.468;11.044;2024-02-26T06:46:38;65.73;;;27.07;;
20705;SDS011;10514;49.468;11.044;2024-02-26T06:49:04;50.53;;;23.50;;
20705;SDS011;10514;49.468;11.044;2024-02-26T06:51:30;21.93;;;10.53;;
20705;SDS011;10514;49.468;11.044;2024-02-26T06:53:55;9.57;;;4.77;;
20705;SDS011;10514;49.468;11.044;2024-02-26T06:56:21;9.90;;;4.77;;
20705;SDS011;10514;49.468;11.044;2024-02-26T06:58:46;7.90;;;4.30;;
20705;SDS011;10514;49.468;11.044;2024-02-26T07:01:12;6.93;;;4.10;;
20705;SDS011;10514;49.468;11.044;2024-02-26T07:03:39;5.93;;;3.83;;
20705;SDS011;10514;49.468;11.044;2024-02-26T07:06:05;7.20;;;4.30;;
20705;SDS011;10514;49.468;11.044;2024-02-26T07:08:31;6.70;;;4.20;;
20705;SDS011;10514;49.468;11.044;2024-02-26T07:10:57;8.73;;;4.37;;
20705;SDS011;10514;49.468;11.044;2024-02-26T07:13:23;6.40;;;4.00;;
20705;SDS011;10514;49.468;11.044;2024-02-26T07:15:48;9.57;;;4.40;;
20705;SDS011;10514;49.468;11.044;2024-02-26T07:18:14;7.23;;;4.07;;
20705;SDS011;10514;49.468;11.044;2024-02-26T07:20:39;7.67;;;4.63;;
20705;SDS011;10514;49.468;11.044;2024-02-26T07:23:05;8.33;;;4.37;;
20705;SDS011;10514;49.468;11.044;2024-02-26T07:25:31;7.17;;;3.70;;
20705;SDS011;10514;49.468;11.044;2024-02-26T07:27:57;6.37;;;3.20;;
20705;SDS011;10514;49.468;11.044;2024-02-26T07:30:24;5.50;;;3.50;;
20705;SDS011;10514;49.468;11.044;2024-02-26T07:32:49;6.07;;;3.30;;
20705;SDS011;10514;49.468;11.044;2024-02-26T07:35:15;6.33;;;3.47;;
20705;SDS011;10514;49.468;11.044;2024-02-26T07:37:42;6.43;;;3.30;;
20705;SDS011;10514;49.468;11.044;2024-02-26T07:40:08;5.33;;;3.10;;
20705;SDS011;10514;49.468;11.044;2024-02-26T07:42:34;5.80;;;3.10;;
20705;SDS011;10514;49.468;11.044;2024-02-26T07:44:59;5.10;;;3.30;;
20705;SDS011;10514;49.468;11.044;2024-02-26T07:47:25;7.00;;;3.80;;
20705;SDS011;10514;49.468;11.044;2024-02-26T07:49:50;7.73;;;4.10;;
20705;SDS011;10514;49.468;11.044;2024-02-26T07:52:16;5.30;;;3.13;;
20705;SDS011;10514;49.468;11.044;2024-02-26T07:54:41;6.30;;;3.50;;
20705;SDS011;10514;49.468;11.044;2024-02-26T07:57:07;6.20;;;3.43;;
20705;SDS011;10514;49.468;11.044;2024-02-26T07:59:33;6.80;;;3.13;;
20705;SDS011;10514;49.468;11.044;2024-02-26T08:01:58;8.00;;;3.50;;
20705;SDS011;10514;49.468;11.044;2024-02-26T08:04:24;5.13;;;3.50;;
20705;SDS011;10514;49.468;11.044;2024-02-26T08:06:51;6.93;;;3.90;;
20705;SDS011;10514;49.468;11.044;2024-02-26T08:09:17;6.70;;;3.73;;
20705;SDS011;10514;49.468;11.044;2024-02-26T08:11:42;5.33;;;3.20;;
20705;SDS011;10514;49.468;11.044;2024-02-26T08:14:08;6.63;;;3.37;;
20705;SDS011;10514;49.468;11.044;2024-02-26T08:16:33;5.77;;;3.00;;
20705;SDS011;10514;49.468;11.044;2024-02-26T08:18:59;5.03;;;3.17;;
20705;SDS011;10514;49.468;11.044;2024-02-26T08:21:24;7.13;;;3.10;;
20705;SDS011;10514;49.468;11.044;2024-02-26T08:23:52;4.93;;;3.10;;
20705;SDS011;10514;49.468;11.044;2024-02-26T08:26:18;4.47;;;2.80;;
20705;SDS011;10514;49.468;11.044;2024-02-26T08:28:45;5.70;;;2.70;;
20705;SDS011;10514;49.468;11.044;2024-02-26T08:31:12;4.67;;;2.80;;
20705;SDS011;10514;49.468;11.044;2024-02-26T08:33:38;5.03;;;2.63;;
20705;SDS011;10514;49.468;11.044;2024-02-26T08:36:04;5.40;;;2.80;;
20705;SDS011;10514;49.468;11.044;2024-02-26T08:38:30;5.33;;;3.57;;
20705;SDS011;10514;49.468;11.044;2024-02-26T08:40:56;5.13;;;2.70;;
20705;SDS011;10514;49.468;11.044;2024-02-26T08:43:22;6.43;;;3.07;;
20705;SDS011;10514;49.468;11.044;2024-02-26T08:45:47;5.00;;;2.90;;
20705;SDS011;10514;49.468;11.044;2024-02-26T08:48:13;6.40;;;3.50;;
20705;SDS011;10514;49.468;11.044;2024-02-26T08:50:38;5.83;;;3.07;;
20705;SDS011;10514;49.468;11.044;2024-02-26T08:53:04;4.63;;;2.90;;
20705;SDS011;10514;49.468;11.044;2024-02-26T08:55:30;32.23;;;14.77;;
20705;SDS011;10514;49.468;11.044;2024-02-26T08:57:56;21.13;;;9.77;;
20705;SDS011;10514;49.468;11.044;2024-02-26T09:00:21;17.40;;;9.07;;
20705;SDS011;10514;49.468;11.044;2024-02-26T09:02:47;9.93;;;6.10;;
20705;SDS011;10514;49.468;11.044;2024-02-26T09:05:14;8.63;;;5.30;;
20705;SDS011;10514;49.468;11.044;2024-02-26T09:07:40;6.40;;;4.50;;
20705;SDS011;10514;49.468;11.044;2024-02-26T09:10:05;9.27;;;6.03;;
20705;SDS011;10514;49.468;11.044;2024-02-26T09:12:34;8.93;;;6.53;;
20705;SDS011;10514;49.468;11.044;2024-02-26T09:14:59;10.93;;;6.17;;
20705;SDS011;10514;49.468;11.044;2024-02-26T09:17:25;51.03;;;19.53;;
20705;SDS011;10514;49.468;11.044;2024-02-26T09:19:50;9.47;;;5.93;;
20705;SDS011;10514;49.468;11.044;2024-02-26T09:22:16;8.63;;;5.90;;
20705;SDS011;10514;49.468;11.044;2024-02-26T09:24:41;8.73;;;5.23;;
20705;SDS011;10514;49.468;11.044;2024-02-26T09:27:07;6.17;;;3.97;;
20705;SDS011;10514;49.468;11.044;2024-02-26T09:29:32;4.47;;;2.60;;
20705;SDS011;10514;49.468;11.044;2024-02-26T09:32:00;8.18;;;3.85;;
20705;SDS011;10514;49.468;11.044;2024-02-26T09:34:26;6.07;;;3.65;;
20705;SDS011;10514;49.468;11.044;2024-02-26T09:36:52;7.68;;;4.75;;
20705;SDS011;10514;49.468;11.044;2024-02-26T09:39:17;7.38;;;4.63;;
20705;SDS011;10514;49.468;11.044;2024-02-26T09:41:46;6.05;;;3.60;;
20705;SDS011;10514;49.468;11.044;2024-02-26T09:44:15;4.93;;;3.30;;
20705;SDS011;10514;49.468;11.044;2024-02-26T09:46:45;6.25;;;3.58;;
20705;SDS011;10514;49.468;11.044;2024-02-26T09:49:12;7.55;;;4.20;;
20705;SDS011;10514;49.468;11.044;2024-02-26T09:51:40;33.63;;;13.77;;
20705;SDS011;10514;49.468;11.044;2024-02-26T09:54:05;7.97;;;4.37;;
20705;SDS011;10514;49.468;11.044;2024-02-26T09:56:34;13.63;;;5.40;;
20705;SDS011;10514;49.468;11.044;2024-02-26T09:59:02;7.37;;;4.00;;
20705;SDS011;10514;49.468;11.044;2024-02-26T10:01:30;6.40;;;3.50;;
20705;SDS011;10514;49.468;11.044;2024-02-26T10:03:58;7.57;;;4.47;;
20705;SDS011;10514;49.468;11.044;2024-02-26T10:06:26;8.30;;;4.50;;
20705;SDS011;10514;49.468;11.044;2024-02-26T10:08:53;5.60;;;3.40;;
20705;SDS011;10514;49.468;11.044;2024-02-26T10:11:19;4.83;;;3.03;;
20705;SDS011;10514;49.468;11.044;2024-02-26T10:13:47;4.67;;;2.83;;
20705;SDS011;10514;49.468;11.044;2024-02-26T10:16:12;5.00;;;3.20;;
20705;SDS011;10514;49.468;11.044;2024-02-26T10:18:45;5.30;;;3.28;;
20705;SDS011;10514;49.468;11.044;2024-02-26T10:21:11;5.00;;;2.80;;
20705;SDS011;10514;49.468;11.044;2024-02-26T10:23:37;4.03;;;2.43;;
20705;SDS011;10514;49.468;11.044;2024-02-26T10:26:03;6.90;;;4.00;;
20705;SDS011;10514;49.468;11.044;2024-02-26T10:28:29;4.25;;;2.80;;
20705;SDS011;10514;49.468;11.044;2024-02-26T10:30:55;5.43;;;2.88;;
20705;SDS011;10514;49.468;11.044;2024-02-26T10:33:20;4.63;;;3.17;;
20705;SDS011;10514;49.468;11.044;2024-02-26T10:35:47;5.03;;;3.00;;
20705;SDS011;10514;49.468;11.044;2024-02-26T10:38:12;4.30;;;2.80;;
20705;SDS011;10514;49.468;11.044;2024-02-26T10:40:38;4.45;;;2.67;;
20705;SDS011;10514;49.468;11.044;2024-02-26T10:43:04;4.45;;;2.58;;
20705;SDS011;10514;49.468;11.044;2024-02-26T10:45:29;3.90;;;2.60;;
20705;SDS011;10514;49.468;11.044;2024-02-26T10:47:57;5.50;;;2.60;;
20705;SDS011;10514;49.468;11.044;2024-02-26T10:50:22;5.40;;;2.80;;
20705;SDS011;10514;49.468;11.044;2024-02-26T10:52:49;5.07;;;2.80;;
20705;SDS011;10514;49.468;11.044;2024-02-26T10:55:17;5.15;;;2.67;;
20705;SDS011;10514;49.468;11.044;2024-02-26T10:57:46;4.32;;;2.25;;
20705;SDS011;10514;49.468;11.044;2024-02-26T11:00:15;5.97;;;2.80;;
20705;SDS011;10514;49.468;11.044;2024-02-26T11:02:41;4.80;;;2.60;;
20705;SDS011;10514;49.468;11.044;2024-02-26T11:05:08;5.07;;;3.28;;
20705;SDS011;10514;49.468;11.044;2024-02-26T11:07:36;4.50;;;2.58;;
20705;SDS011;10514;49.468;11.044;2024-02-26T11:10:02;8.77;;;7.00;;
20705;SDS011;10514;49.468;11.044;2024-02-26T11:12:30;7.70;;;4.22;;
20705;SDS011;10514;49.468;11.044;2024-02-26T11:14:57;3.90;;;2.20;;
20705;SDS011;10514;49.468;11.044;2024-02-26T11:17:27;4.78;;;2.08;;
20705;SDS011;10514;49.468;11.044;2024-02-26T11:19:57;4.80;;;2.60;;
20705;SDS011;10514;49.468;11.044;2024-02-26T11:22:24;3.63;;;2.13;;
20705;SDS011;10514;49.468;11.044;2024-02-26T11:24:53;4.22;;;2.17;;
20705;SDS011;10514;49.468;11.044;2024-02-26T11:27:23;3.92;;;2.20;;
20705;SDS011;10514;49.468;11.044;2024-02-26T11:29:54;5.93;;;2.75;;
20705;SDS011;10514;49.468;11.044;2024-02-26T11:32:22;5.40;;;2.47;;
20705;SDS011;10514;49.468;11.044;2024-02-26T11:34:48;3.67;;;2.20;;
20705;SDS011;10514;49.468;11.044;2024-02-26T11:37:15;3.58;;;2.15;;
20705;SDS011;10514;49.468;11.044;2024-02-26T11:39:42;5.30;;;2.10;;
20705;SDS011;10514;49.468;11.044;2024-02-26T11:42:10;5.38;;;2.20;;
20705;SDS011;10514;49.468;11.044;2024-02-26T11:44:39;3.88;;;2.20;;
20705;SDS011;10514;49.468;11.044;2024-02-26T11:47:10;3.92;;;2.03;;
20705;SDS011;10514;49.468;11.044;2024-02-26T11:49:35;28.38;;;14.20;;
20705;SDS011;10514;49.468;11.044;2024-02-26T11:52:04;10.82;;;5.70;;
20705;SDS011;10514;49.468;11.044;2024-02-26T11:54:51;4.93;;;2.60;;
20705;SDS011;10514;49.468;11.044;2024-02-26T11:57:27;5.13;;;2.65;;
20705;SDS011;10514;49.468;11.044;2024-02-26T12:00:10;4.63;;;2.00;;
20705;SDS011;10514;49.468;11.044;2024-02-26T12:05:14;4.28;;;2.10;;
20705;SDS011;10514;49.468;11.044;2024-02-26T12:07:48;3.08;;;2.25;;
20705;SDS011;10514;49.468;11.044;2024-02-26T12:10:25;3.70;;;2.88;;
20705;SDS011;10514;49.468;11.044;2024-02-26T12:12:59;3.70;;;2.28;;
20705;SDS011;10514;49.468;11.044;2024-02-26T12:15:32;3.97;;;2.30;;
20705;SDS011;10514;49.468;11.044;2024-02-26T12:18:00;4.65;;;2.40;;
20705;SDS011;10514;49.468;11.044;2024-02-26T12:20:27;3.15;;;2.03;;
20705;SDS011;10514;49.468;11.044;2024-02-26T12:22:52;4.07;;;2.38;;
20705;SDS011;10514;49.468;11.044;2024-02-26T12:25:24;4.18;;;2.47;;
20705;SDS011;10514;49.468;11.044;2024-02-26T12:27:51;4.63;;;2.30;;
20705;SDS011;10514;49.468;11.044;2024-02-26T12:30:20;4.60;;;2.20;;
20705;SDS011;10514;49.468;11.044;2024-02-26T12:32:47;3.95;;;2.10;;
20705;SDS011;10514;49.468;11.044;2024-02-26T12:35:13;3.80;;;2.30;;
20705;SDS011;10514;49.468;11.044;2024-02-26T12:37:40;3.22;;;2.30;;
20705;SDS011;10514;49.468;11.044;2024-02-26T12:40:06;3.50;;;2.00;;
20705;SDS011;10514;49.468;11.044;2024-02-26T12:42:34;3.83;;;2.28;;
20705;SDS011;10514;49.468;11.044;2024-02-26T12:45:04;4.28;;;2.40;;
20705;SDS011;10514;49.468;11.044;2024-02-26T12:47:44;3.42;;;2.20;;
20705;SDS011;10514;49.468;11.044;2024-02-26T12:50:16;3.25;;;2.30;;
20705;SDS011;10514;49.468;11.044;2024-02-26T12:52:46;4.65;;;2.42;;
20705;SDS011;10514;49.468;11.044;2024-02-26T12:55:16;3.33;;;2.05;;
20705;SDS011;10514;49.468;11.044;2024-02-26T12:57:43;4.07;;;2.40;;
20705;SDS011;10514;49.468;11.044;2024-02-26T13:00:14;3.40;;;2.00;;
20705;SDS011;10514;49.468;11.044;2024-02-26T13:02:42;3.40;;;2.28;;
20705;SDS011;10514;49.468;11.044;2024-02-26T13:05:09;4.55;;;2.00;;
20705;SDS011;10514;49.468;11.044;2024-02-26T13:07:43;15.15;;;6.38;;
20705;SDS011;10514;49.468;11.044;2024-02-26T13:10:09;5.38;;;2.40;;
20705;SDS011;10514;49.468;11.044;2024-02-26T13:12:45;5.70;;;2.95;;
20705;SDS011;10514;49.468;11.044;2024-02-26T13:15:19;4.70;;;2.35;;
20705;SDS011;10514;49.468;11.044;2024-02-26T13:17:46;7.32;;;3.13;;
20705;SDS011;10514;49.468;11.044;2024-02-26T13:20:13;5.05;;;2.70;;
20705;SDS011;10514;49.468;11.044;2024-02-26T13:22:49;3.97;;;2.15;;
20705;SDS011;10514;49.468;11.044;2024-02-26T13:25:15;2.70;;;1.50;;
20705;SDS011;10514;49.468;11.044;2024-02-26T13:27:45;2.28;;;1.50;;
20705;SDS011;10514;49.468;11.044;2024-02-26T13:30:12;3.25;;;1.67;;
20705;SDS011;10514;49.468;11.044;2024-02-26T13:32:38;2.58;;;1.75;;
20705;SDS011;10514;49.468;11.044;2024-02-26T13:35:05;2.17;;;1.50;;
20705;SDS011;10514;49.468;11.044;2024-02-26T13:37:32;2.38;;;1.60;;
20705;SDS011;10514;49.468;11.044;2024-02-26T13:39:58;2.47;;;1.20;;
20705;SDS011;10514;49.468;11.044;2024-02-26T13:42:24;1.73;;;1.30;;
20705;SDS011;10514;49.468;11.044;2024-02-26T13:44:49;3.10;;;1.35;;
20705;SDS011;10514;49.468;11.044;2024-02-26T13:47:15;4.85;;;1.50;;
20705;SDS011;10514;49.468;11.044;2024-02-26T13:49:41;2.42;;;1.40;;
20705;SDS011;10514;49.468;11.044;2024-02-26T13:52:06;2.10;;;1.40;;
20705;SDS011;10514;49.468;11.044;2024-02-26T13:54:32;2.63;;;1.10;;
20705;SDS011;10514;49.468;11.044;2024-02-26T13:56:58;1.58;;;1.30;;
20705;SDS011;10514;49.468;11.044;2024-02-26T13:59:24;1.42;;;1.10;;
20705;SDS011;10514;49.468;11.044;2024-02-26T14:01:49;2.10;;;1.33;;
20705;SDS011;10514;49.468;11.044;2024-02-26T14:04:15;1.23;;;1.00;;
20705;SDS011;10514;49.468;11.044;2024-02-26T14:06:41;2.05;;;1.13;;
20705;SDS011;10514;49.468;11.044;2024-02-26T14:09:07;2.47;;;1.20;;
20705;SDS011;10514;49.468;11.044;2024-02-26T14:11:33;1.95;;;1.20;;
20705;SDS011;10514;49.468;11.044;2024-02-26T14:13:59;1.45;;;1.10;;
20705;SDS011;10514;49.468;11.044;2024-02-26T14:16:24;2.00;;;1.30;;
20705;SDS011;10514;49.468;11.044;2024-02-26T14:18:50;1.60;;;1.00;;
20705;SDS011;10514;49.468;11.044;2024-02-26T14:21:16;1.38;;;1.20;;
20705;SDS011;10514;49.468;11.044;2024-02-26T14:23:41;1.42;;;1.00;;
20705;SDS011;10514;49.468;11.044;2024-02-26T14:26:09;1.90;;;1.17;;
20705;SDS011;10514;49.468;11.044;2024-02-26T14:28:35;1.38;;;1.08;;